createdAt,value
2023-04-20T00:00:59.629Z,69.84
2023-04-20T00:03:26.868Z,72.79
2023-04-20T00:05:54.332Z,75.37
2023-04-20T00:08:22.840Z,77.17
2023-04-20T00:10:49.451Z,79.55
2023-04-20T00:13:16.453Z,75.70
2023-04-20T00:15:43.179Z,76.46
2023-04-20T00:18:11.370Z,78.90
2023-04-20T00:20:38.947Z,80.98
2023-04-20T00:23:05.673Z,82.39
2023-04-20T00:25:32.373Z,81.87
2023-04-20T00:28:00.249Z,84.53
2023-04-20T00:30:26.709Z,82.01
2023-04-20T00:32:53.455Z,80.97
2023-04-20T00:35:19.958Z,81.26
2023-04-20T00:37:46.582Z,79.29
2023-04-20T00:40:13.445Z,80.06
2023-04-20T00:42:42.865Z,81.57
2023-04-20T00:45:10.027Z,83.70
2023-04-20T00:47:36.774Z,87.82
2023-04-20T00:50:04.995Z,88.64
2023-04-20T00:52:32.886Z,87.90
2023-04-20T00:54:59.860Z,90.28
2023-04-20T00:57:28.850Z,91.02
2023-04-20T00:59:55.758Z,93.60
2023-04-20T01:02:22.921Z,92.73
2023-04-20T01:04:49.806Z,90.31
2023-04-20T01:07:16.527Z,92.15
2023-04-20T01:09:43.341Z,95.25
2023-04-20T01:12:11.166Z,99.16
2023-04-20T01:14:37.753Z,100.00
2023-04-20T01:17:05.182Z,100.00
2023-04-20T01:19:33.255Z,99.33
2023-04-20T01:21:59.921Z,98.88
2023-04-20T01:24:26.423Z,100.00
2023-04-20T01:26:52.894Z,100.00
2023-04-20T01:29:19.709Z,100.00
2023-04-20T01:31:46.612Z,100.00
2023-04-20T01:34:13.298Z,100.00
2023-04-20T01:36:39.834Z,100.00
2023-04-20T01:39:07.855Z,100.00
2023-04-20T01:41:34.489Z,100.00
2023-04-20T01:44:01.189Z,100.00
2023-04-20T01:46:28.031Z,100.00
2023-04-20T01:48:54.535Z,100.00
2023-04-20T01:51:21.204Z,100.00
2023-04-20T01:53:47.987Z,100.00
2023-04-20T01:56:15.817Z,100.00
2023-04-20T01:58:42.404Z,100.00
2023-04-20T02:01:08.924Z,100.00
2023-04-20T02:03:35.630Z,100.00
2023-04-20T02:06:02.294Z,100.00
2023-04-20T02:08:28.862Z,100.00
2023-04-20T02:10:55.525Z,100.00
2023-04-20T02:13:23.054Z,100.00
2023-04-20T02:15:49.759Z,100.00
2023-04-20T02:18:16.416Z,100.00
2023-04-20T02:20:48.397Z,100.00
2023-04-20T02:23:14.939Z,100.00
2023-04-20T02:25:41.805Z,100.00
2023-04-20T02:28:08.401Z,100.00
2023-04-20T02:30:34.974Z,100.00
2023-04-20T02:33:01.677Z,100.00
2023-04-20T02:35:31.026Z,100.00
2023-04-20T02:37:57.533Z,100.00
2023-04-20T02:40:24.155Z,100.00
2023-04-20T02:42:51.105Z,100.00
2023-04-20T02:45:17.693Z,100.00
2023-04-20T02:47:44.423Z,100.00
2023-04-20T02:50:11.647Z,100.00
2023-04-20T02:52:38.649Z,100.00
2023-04-20T02:55:06.025Z,100.00
2023-04-20T02:57:32.521Z,100.00
2023-04-20T02:59:59.016Z,100.00
2023-04-20T03:02:25.923Z,100.00
2023-04-20T03:04:53.187Z,100.00
2023-04-20T03:07:20.041Z,100.00
2023-04-20T03:09:46.831Z,100.00
2023-04-20T03:12:13.538Z,100.00
2023-04-20T03:14:40.138Z,100.00
2023-04-20T03:17:07.158Z,100.00
2023-04-20T03:19:34.131Z,100.00
2023-04-20T03:22:00.853Z,100.00
2023-04-20T03:24:27.371Z,100.00
2023-04-20T03:26:53.861Z,100.00
2023-04-20T03:29:20.596Z,100.00
2023-04-20T03:31:47.311Z,100.00
2023-04-20T03:34:15.285Z,100.00
2023-04-20T03:36:41.932Z,100.00
2023-04-20T03:39:08.522Z,100.00
2023-04-20T03:41:35.095Z,100.00
2023-04-20T03:44:01.921Z,100.00
2023-04-20T03:46:28.910Z,100.00
2023-04-20T03:48:55.770Z,100.00
2023-04-20T03:51:22.274Z,100.00
2023-04-20T03:53:48.904Z,100.00
2023-04-20T03:56:15.429Z,100.00
2023-04-20T03:58:41.986Z,100.00
2023-04-20T04:01:08.694Z,100.00
2023-04-20T04:03:36.410Z,100.00
2023-04-20T04:06:03.735Z,100.00
2023-04-20T04:08:31.656Z,100.00
2023-04-20T04:10:58.171Z,100.00
2023-04-20T04:13:24.660Z,100.00
2023-04-20T04:15:51.281Z,100.00
2023-04-20T04:18:17.766Z,100.00
2023-04-20T04:20:44.587Z,100.00
2023-04-20T04:23:11.710Z,100.00
2023-04-20T04:25:40.275Z,100.00
2023-04-20T04:28:07.419Z,100.00
2023-04-20T04:33:36.237Z,100.00
2023-04-20T04:36:05.498Z,100.00
2023-04-20T04:38:33.426Z,100.00
2023-04-20T04:41:00.634Z,100.00
2023-04-20T04:43:27.554Z,100.00
2023-04-20T04:45:55.657Z,100.00
2023-04-20T04:48:23.234Z,100.00
2023-04-20T04:50:49.826Z,100.00
2023-04-20T04:53:16.495Z,100.00
2023-04-20T04:55:43.234Z,100.00
2023-04-20T04:58:09.813Z,100.00
2023-04-20T05:00:36.377Z,100.00
2023-04-20T05:03:04.202Z,99.71
2023-04-20T05:05:31.040Z,97.55
2023-04-20T05:07:57.693Z,99.71
2023-04-20T05:10:24.917Z,100.00
2023-04-20T05:12:52.872Z,96.74
2023-04-20T05:15:19.421Z,96.04
2023-04-20T05:17:49.765Z,96.47
2023-04-20T05:20:16.790Z,97.28
2023-04-20T05:22:43.436Z,98.01
2023-04-20T05:25:12.128Z,94.37
2023-04-20T05:27:39.842Z,95.00
2023-04-20T05:30:19.483Z,97.38
2023-04-20T05:32:51.133Z,100.00
2023-04-20T05:35:18.858Z,100.00
2023-04-20T05:37:45.446Z,100.00
2023-04-20T05:40:12.223Z,100.00
2023-04-20T05:42:38.843Z,100.00
2023-04-20T05:45:05.958Z,100.00
2023-04-20T05:47:32.752Z,100.00
2023-04-20T05:49:59.460Z,100.00
2023-04-20T05:52:26.493Z,100.00
2023-04-20T05:54:53.550Z,100.00
2023-04-20T05:57:20.850Z,100.00
2023-04-20T05:59:47.738Z,100.00
2023-04-20T06:02:15.704Z,100.00
2023-04-20T06:04:42.657Z,100.00
2023-04-20T06:07:09.895Z,100.00
2023-04-20T06:09:36.344Z,100.00
2023-04-20T06:12:04.538Z,100.00
2023-04-20T06:14:32.985Z,100.00
2023-04-20T06:16:59.542Z,100.00
2023-04-20T06:19:26.982Z,100.00
2023-04-20T06:21:54.838Z,100.00
2023-04-20T06:24:21.515Z,100.00
2023-04-20T06:26:48.144Z,100.00
2023-04-20T06:29:15.853Z,100.00
2023-04-20T06:31:43.112Z,100.00
2023-04-20T06:34:09.945Z,100.00
2023-04-20T06:36:36.542Z,100.00
2023-04-20T06:39:03.733Z,100.00
2023-04-20T06:41:30.440Z,100.00
2023-04-20T06:43:57.226Z,100.00
2023-04-20T06:46:24.125Z,100.00
2023-04-20T06:48:50.712Z,100.00
2023-04-20T06:51:17.201Z,100.00
2023-04-20T06:53:43.973Z,100.00
2023-04-20T06:56:11.406Z,100.00
2023-04-20T06:58:38.246Z,100.00
2023-04-20T07:01:06.882Z,100.00
2023-04-20T07:03:34.107Z,100.00
2023-04-20T07:06:00.786Z,100.00
2023-04-20T07:08:28.826Z,100.00
2023-04-20T07:10:56.022Z,100.00
2023-04-20T07:13:22.622Z,100.00
2023-04-20T07:15:49.150Z,100.00
2023-04-20T07:18:16.483Z,100.00
2023-04-20T07:20:43.145Z,100.00
2023-04-20T07:23:09.928Z,100.00
2023-04-20T07:25:36.505Z,100.00
2023-04-20T07:28:02.962Z,100.00
2023-04-20T07:30:32.042Z,100.00
2023-04-20T07:32:58.885Z,100.00
2023-04-20T07:35:25.558Z,100.00
2023-04-20T07:37:52.321Z,100.00
2023-04-20T07:40:18.892Z,100.00
2023-04-20T07:42:46.173Z,100.00
2023-04-20T07:45:14.086Z,100.00
2023-04-20T07:47:41.246Z,100.00
2023-04-20T07:50:08.249Z,100.00
2023-04-20T07:52:35.719Z,100.00
2023-04-20T07:55:03.108Z,100.00
2023-04-20T07:57:30.082Z,100.00
2023-04-20T07:59:59.329Z,100.00
2023-04-20T08:02:26.039Z,100.00
2023-04-20T08:04:52.760Z,100.00
2023-04-20T08:07:19.691Z,100.00
2023-04-20T08:09:46.850Z,100.00
2023-04-20T08:12:13.581Z,100.00
2023-04-20T08:14:41.325Z,100.00
2023-04-20T08:17:08.376Z,100.00
2023-04-20T08:19:35.216Z,100.00
2023-04-20T08:22:04.720Z,100.00
2023-04-20T08:24:31.663Z,100.00
2023-04-20T08:26:59.501Z,100.00
2023-04-20T08:29:29.318Z,100.00
2023-04-20T08:31:56.562Z,100.00
2023-04-20T08:34:23.293Z,100.00
2023-04-20T08:36:50.172Z,100.00
2023-04-20T08:39:24.777Z,100.00
2023-04-20T08:41:58.202Z,100.00
2023-04-20T08:44:25.112Z,100.00
2023-04-20T08:46:52.261Z,100.00
2023-04-20T08:49:19.827Z,100.00
2023-04-20T08:51:48.179Z,100.00
2023-04-20T08:54:15.894Z,100.00
2023-04-20T08:56:45.188Z,100.00
2023-04-20T08:59:14.080Z,100.00
2023-04-20T09:01:41.929Z,100.00
2023-04-20T09:04:26.829Z,100.00
2023-04-20T09:06:55.931Z,100.00
2023-04-20T09:09:24.727Z,100.00
2023-04-20T09:12:06.928Z,100.00
2023-04-20T09:14:44.569Z,100.00
2023-04-20T09:17:14.778Z,100.00
2023-04-20T09:19:44.766Z,100.00
2023-04-20T09:22:11.621Z,100.00
2023-04-20T09:24:39.821Z,100.00
2023-04-20T09:27:19.386Z,100.00
2023-04-20T09:29:58.069Z,100.00
2023-04-20T09:32:26.424Z,100.00
2023-04-20T09:34:53.001Z,100.00
2023-04-20T09:37:19.995Z,100.00
2023-04-20T09:39:46.977Z,100.00
2023-04-20T09:42:15.834Z,100.00
2023-04-20T09:44:43.308Z,100.00
2023-04-20T09:47:19.081Z,100.00
2023-04-20T09:49:49.053Z,100.00
2023-04-20T09:52:21.032Z,100.00
2023-04-20T09:54:47.561Z,100.00
2023-04-20T09:57:14.810Z,100.00
2023-04-20T09:59:47.567Z,100.00
2023-04-20T10:02:15.369Z,100.00
2023-04-20T10:04:55.652Z,100.00
2023-04-20T10:07:29.957Z,100.00
2023-04-20T10:10:15.763Z,100.00
2023-04-20T10:12:54.216Z,100.00
2023-04-20T10:15:24.466Z,100.00
2023-04-20T10:17:51.687Z,100.00
2023-04-20T10:20:27.603Z,100.00
2023-04-20T10:23:06.623Z,100.00
2023-04-20T10:25:33.183Z,100.00
2023-04-20T10:28:05.479Z,100.00
2023-04-20T10:30:33.312Z,100.00
2023-04-20T10:33:11.462Z,100.00
2023-04-20T10:35:51.030Z,100.00
2023-04-20T10:38:37.886Z,100.00
2023-04-20T10:41:08.879Z,100.00
2023-04-20T10:43:36.116Z,100.00
2023-04-20T10:46:02.649Z,100.00
2023-04-20T10:48:29.284Z,100.00
2023-04-20T10:50:56.307Z,100.00
2023-04-20T10:53:24.852Z,100.00
2023-04-20T10:55:59.447Z,100.00
2023-04-20T10:58:26.263Z,100.00
2023-04-20T11:01:04.713Z,100.00
2023-04-20T11:03:36.924Z,100.00
2023-04-20T11:06:04.240Z,100.00
2023-04-20T11:08:41.643Z,100.00
2023-04-20T11:11:24.833Z,100.00
2023-04-20T11:13:53.843Z,100.00
2023-04-20T11:16:20.520Z,100.00
2023-04-20T11:18:56.845Z,100.00
2023-04-20T11:21:23.678Z,100.00
2023-04-20T11:23:51.671Z,100.00
2023-04-20T11:26:19.093Z,100.00
2023-04-20T11:28:55.200Z,100.00
2023-04-20T11:31:23.123Z,100.00
2023-04-20T11:33:51.299Z,100.00
2023-04-20T11:36:22.934Z,100.00
2023-04-20T11:38:50.214Z,100.00
2023-04-20T11:41:17.371Z,100.00
2023-04-20T11:43:45.531Z,100.00
2023-04-20T11:46:14.699Z,100.00
2023-04-20T11:48:41.748Z,100.00
2023-04-20T11:51:08.404Z,100.00
2023-04-20T11:53:35.175Z,100.00
2023-04-20T11:56:01.816Z,100.00
2023-04-20T11:58:28.355Z,100.00
2023-04-20T12:00:54.919Z,100.00
2023-04-20T12:03:22.460Z,100.00
2023-04-20T12:05:49.105Z,100.00
2023-04-20T12:08:17.229Z,100.00
2023-04-20T12:10:43.816Z,100.00
2023-04-20T12:13:10.841Z,100.00
2023-04-20T12:15:37.387Z,100.00
2023-04-20T12:18:04.285Z,100.00
2023-04-20T12:20:30.887Z,100.00
2023-04-20T12:22:58.930Z,100.00
2023-04-20T12:25:26.024Z,100.00
2023-04-20T12:27:52.520Z,98.07
2023-04-20T12:30:19.281Z,96.38
2023-04-20T12:32:45.882Z,96.20
2023-04-20T12:35:12.836Z,95.76
2023-04-20T12:37:39.371Z,98.48
2023-04-20T12:40:07.264Z,98.48
2023-04-20T12:42:33.979Z,99.04
2023-04-20T12:45:00.532Z,97.89
2023-04-20T12:47:27.126Z,93.29
2023-04-20T12:49:54.905Z,97.40
2023-04-20T12:52:21.891Z,98.15
2023-04-20T12:54:48.494Z,96.72
2023-04-20T12:57:15.171Z,99.75
2023-04-20T12:59:42.877Z,99.93
2023-04-20T13:02:10.899Z,100.00
2023-04-20T13:04:37.692Z,100.00
2023-04-20T13:07:04.483Z,100.00
2023-04-20T13:09:32.563Z,100.00
2023-04-20T13:11:59.484Z,100.00
2023-04-20T13:14:26.476Z,100.00
2023-04-20T13:16:55.209Z,100.00
2023-04-20T13:19:22.184Z,95.18
2023-04-20T13:21:49.398Z,98.29
2023-04-20T13:24:16.417Z,96.35
2023-04-20T13:26:43.168Z,97.60
2023-04-20T13:29:09.752Z,97.43
2023-04-20T13:31:37.474Z,96.48
2023-04-20T13:34:04.449Z,96.46
2023-04-20T13:36:31.957Z,91.71
2023-04-20T13:38:58.784Z,91.86
2023-04-20T13:41:25.363Z,86.29
2023-04-20T13:43:51.973Z,83.23
2023-04-20T13:46:20.260Z,82.73
2023-04-20T13:48:46.850Z,85.85
2023-04-20T13:51:13.373Z,87.76
2023-04-20T13:53:39.931Z,89.96
2023-04-20T13:56:06.619Z,92.13
2023-04-20T13:58:33.178Z,91.68
2023-04-20T14:00:59.907Z,82.17
2023-04-20T14:03:27.024Z,81.15
2023-04-20T14:05:53.841Z,83.59
2023-04-20T14:08:20.715Z,77.20
2023-04-20T14:10:47.520Z,77.97
2023-04-20T14:13:14.166Z,75.07
2023-04-20T14:15:41.748Z,74.99
2023-04-20T14:18:08.432Z,74.85
2023-04-20T14:20:35.008Z,80.18
2023-04-20T14:23:01.762Z,80.77
2023-04-20T14:25:28.915Z,84.95
2023-04-20T14:27:55.551Z,83.48
2023-04-20T14:30:22.198Z,86.39
2023-04-20T14:33:00.243Z,78.03
2023-04-20T14:35:28.364Z,76.41
2023-04-20T14:37:54.914Z,77.10
2023-04-20T14:40:21.880Z,74.93
2023-04-20T14:42:48.592Z,73.38
2023-04-20T14:45:15.281Z,71.23
2023-04-20T14:47:41.989Z,74.64
2023-04-20T14:50:10.612Z,69.33
2023-04-20T14:52:37.460Z,68.38
2023-04-20T14:55:05.133Z,70.58
2023-04-20T14:57:31.768Z,75.99
2023-04-20T14:59:58.304Z,77.08
2023-04-20T15:02:25.587Z,81.71
2023-04-20T15:04:52.558Z,76.63
2023-04-20T15:07:19.400Z,74.44
2023-04-20T15:09:46.429Z,69.73
2023-04-20T15:12:13.056Z,61.91
2023-04-20T15:14:39.603Z,62.26
2023-04-20T15:17:06.405Z,63.15
2023-04-20T15:19:33.022Z,63.89
2023-04-20T15:22:00.273Z,65.12
2023-04-20T15:24:26.841Z,65.32
2023-04-20T15:26:57.362Z,63.05
2023-04-20T15:29:23.964Z,65.34
2023-04-20T15:31:50.481Z,63.81
2023-04-20T15:34:18.098Z,61.38
2023-04-20T15:36:45.600Z,60.76
2023-04-20T15:39:13.073Z,61.41
2023-04-20T15:41:39.688Z,62.76
2023-04-20T15:44:06.779Z,62.31
2023-04-20T15:46:33.449Z,60.24
2023-04-20T15:49:00.222Z,63.62
2023-04-20T15:51:28.125Z,62.51
2023-04-20T15:53:55.056Z,66.65
2023-04-20T15:56:24.666Z,59.49
2023-04-20T15:58:51.921Z,59.28
2023-04-20T16:01:20.062Z,62.58
2023-04-20T16:03:48.007Z,59.28
2023-04-20T16:06:14.662Z,56.98
2023-04-20T16:08:42.676Z,56.75
2023-04-20T16:11:09.510Z,55.92
2023-04-20T16:13:36.874Z,56.68
2023-04-20T16:16:03.820Z,56.91
2023-04-20T16:18:32.295Z,54.93
2023-04-20T16:20:59.193Z,53.26
2023-04-20T16:23:25.748Z,53.88
2023-04-20T16:25:52.517Z,52.79
2023-04-20T16:28:19.060Z,53.79
2023-04-20T16:30:45.702Z,55.26
2023-04-20T16:35:40.865Z,57.33
2023-04-20T16:38:11.608Z,57.68
2023-04-20T16:40:38.450Z,58.98
2023-04-20T16:43:05.188Z,61.19
2023-04-20T16:45:33.361Z,57.40
2023-04-20T16:48:00.350Z,56.13
2023-04-20T16:50:26.954Z,56.73
2023-04-20T16:52:53.759Z,58.00
2023-04-20T16:55:20.757Z,58.17
2023-04-20T16:57:47.370Z,61.56
2023-04-20T17:00:14.846Z,59.98
2023-04-20T17:02:41.757Z,60.99
2023-04-20T17:05:08.926Z,57.73
2023-04-20T17:07:37.005Z,59.41
2023-04-20T17:10:04.839Z,55.52
2023-04-20T17:12:31.426Z,55.06
2023-04-20T17:14:57.919Z,53.68
2023-04-20T17:17:26.145Z,54.45
2023-04-20T17:19:52.916Z,54.38
2023-04-20T17:22:19.683Z,54.49
2023-04-20T17:24:46.420Z,54.49
2023-04-20T17:27:12.909Z,56.63
2023-04-20T17:29:39.891Z,56.00
2023-04-20T17:32:06.712Z,55.43
2023-04-20T17:34:33.355Z,54.10
2023-04-20T17:37:00.108Z,53.68
2023-04-20T17:39:26.654Z,53.08
2023-04-20T17:41:53.264Z,52.45
2023-04-20T17:44:20.287Z,54.42
2023-04-20T17:46:47.349Z,53.41
2023-04-20T17:49:14.159Z,55.47
2023-04-20T17:51:40.711Z,56.45
2023-04-20T17:54:07.796Z,56.65
2023-04-20T17:56:34.610Z,57.75
2023-04-20T17:59:01.261Z,56.94
2023-04-20T18:01:28.183Z,57.50
2023-04-20T18:03:56.106Z,57.83
2023-04-20T18:06:23.032Z,56.79
2023-04-20T18:08:49.597Z,56.98
2023-04-20T18:11:17.247Z,57.28
2023-04-20T18:13:44.964Z,57.99
2023-04-20T18:16:11.610Z,57.25
2023-04-20T18:18:38.382Z,60.16
2023-04-20T18:21:05.382Z,59.82
2023-04-20T18:23:32.676Z,60.31
2023-04-20T18:25:59.169Z,62.27
2023-04-20T18:28:25.994Z,62.80
2023-04-20T18:30:52.638Z,64.08
2023-04-20T18:33:19.400Z,66.20
2023-04-20T18:35:46.382Z,68.52
2023-04-20T18:38:13.216Z,72.51
2023-04-20T18:40:40.028Z,75.82
2023-04-20T18:43:06.557Z,78.86
2023-04-20T18:45:33.026Z,80.52
2023-04-20T18:47:59.895Z,85.38
2023-04-20T18:50:29.334Z,95.72
2023-04-20T18:52:56.165Z,100.00
2023-04-20T18:55:23.084Z,100.00
2023-04-20T18:57:49.857Z,100.00
2023-04-20T19:00:16.954Z,100.00
2023-04-20T19:02:43.730Z,100.00
2023-04-20T19:05:10.383Z,100.00
2023-04-20T19:07:36.975Z,100.00
2023-04-20T19:10:03.897Z,100.00
2023-04-20T19:12:30.521Z,100.00
2023-04-20T19:14:56.966Z,100.00
2023-04-20T19:17:23.723Z,100.00
2023-04-20T19:19:51.476Z,100.00
2023-04-20T19:22:18.301Z,100.00
2023-04-20T19:24:44.902Z,100.00
2023-04-20T19:27:12.176Z,100.00
2023-04-20T19:29:38.721Z,100.00
2023-04-20T19:32:05.802Z,100.00
2023-04-20T19:34:32.382Z,100.00
2023-04-20T19:36:59.173Z,100.00
2023-04-20T19:39:25.733Z,100.00
2023-04-20T19:41:52.762Z,100.00
2023-04-20T19:44:19.506Z,100.00
2023-04-20T19:46:46.327Z,100.00
2023-04-20T19:49:12.894Z,100.00
2023-04-20T19:51:39.459Z,100.00
2023-04-20T19:54:06.490Z,100.00
2023-04-20T19:56:33.754Z,100.00
2023-04-20T19:59:00.585Z,100.00
2023-04-20T20:01:27.494Z,100.00
2023-04-20T20:04:21.849Z,100.00
2023-04-20T20:06:50.663Z,100.00
2023-04-20T20:09:19.189Z,100.00
2023-04-20T20:11:50.600Z,100.00
2023-04-20T20:14:25.590Z,100.00
2023-04-20T20:17:08.248Z,100.00
2023-04-20T20:19:35.368Z,100.00
2023-04-20T20:22:06.127Z,100.00
2023-04-20T20:24:33.414Z,100.00
2023-04-20T20:27:00.209Z,100.00
2023-04-20T20:29:29.444Z,100.00
2023-04-20T20:31:56.619Z,100.00
2023-04-20T20:34:26.273Z,100.00
2023-04-20T20:36:53.473Z,100.00
2023-04-20T20:39:20.688Z,100.00
2023-04-20T20:41:47.773Z,100.00
2023-04-20T20:44:15.228Z,100.00
2023-04-20T20:46:42.256Z,100.00
2023-04-20T20:49:09.191Z,100.00
2023-04-20T20:51:44.566Z,100.00
2023-04-20T20:54:14.154Z,100.00
2023-04-20T20:56:44.135Z,100.00
2023-04-20T20:59:11.536Z,100.00
2023-04-20T21:01:43.921Z,100.00
2023-04-20T21:04:13.362Z,100.00
2023-04-20T21:06:40.450Z,100.00
2023-04-20T21:09:19.242Z,100.00
2023-04-20T21:11:48.203Z,100.00
2023-04-20T21:14:17.210Z,100.00
2023-04-20T21:16:44.340Z,100.00
2023-04-20T21:19:16.993Z,100.00
2023-04-20T21:21:46.854Z,100.00
2023-04-20T21:24:22.712Z,100.00
2023-04-20T21:26:53.687Z,100.00
2023-04-20T21:29:21.086Z,100.00
2023-04-20T21:31:48.118Z,100.00
2023-04-20T21:34:15.249Z,100.00
2023-04-20T21:36:42.270Z,100.00
2023-04-20T21:39:09.117Z,100.00
2023-04-20T21:41:36.045Z,100.00
2023-04-20T21:44:09.565Z,100.00
2023-04-20T21:46:39.785Z,100.00
2023-04-20T21:49:12.765Z,100.00
2023-04-20T21:51:42.899Z,100.00
2023-04-20T21:54:09.934Z,100.00
2023-04-20T21:56:37.205Z,100.00
2023-04-20T21:59:06.889Z,100.00
2023-04-20T22:01:36.317Z,100.00
2023-04-20T22:04:07.466Z,100.00
2023-04-20T22:06:34.724Z,100.00
2023-04-20T22:09:02.006Z,100.00
2023-04-20T22:11:31.984Z,100.00
2023-04-20T22:14:00.268Z,100.00
2023-04-20T22:16:28.728Z,100.00
2023-04-20T22:18:58.223Z,100.00
2023-04-20T22:21:24.924Z,100.00
2023-04-20T22:23:54.090Z,100.00
2023-04-20T22:26:23.745Z,100.00
2023-04-20T22:29:01.669Z,100.00
2023-04-20T22:31:32.632Z,100.00
2023-04-20T22:34:02.950Z,100.00
2023-04-20T22:36:32.766Z,100.00
2023-04-20T22:39:03.161Z,100.00
2023-04-20T22:41:31.372Z,100.00
2023-04-20T22:43:58.477Z,100.00
2023-04-20T22:46:29.898Z,100.00
2023-04-20T22:48:56.914Z,100.00
2023-04-20T22:51:38.789Z,100.00
2023-04-20T22:54:12.012Z,100.00
2023-04-20T22:56:39.190Z,100.00
2023-04-20T22:59:06.796Z,100.00
2023-04-20T23:01:34.213Z,100.00
2023-04-20T23:04:07.096Z,100.00
2023-04-20T23:06:34.770Z,100.00
2023-04-20T23:09:08.100Z,100.00
2023-04-20T23:11:38.985Z,100.00
2023-04-20T23:14:09.400Z,100.00
2023-04-20T23:16:39.556Z,100.00
2023-04-20T23:19:09.402Z,100.00
2023-04-20T23:21:36.305Z,100.00
2023-04-20T23:24:03.906Z,100.00
2023-04-20T23:26:31.036Z,100.00
2023-04-20T23:28:58.364Z,100.00
2023-04-20T23:31:27.186Z,100.00
2023-04-20T23:34:05.596Z,100.00
2023-04-20T23:36:35.912Z,100.00
2023-04-20T23:39:13.271Z,100.00
2023-04-20T23:41:40.476Z,100.00
2023-04-20T23:44:07.441Z,100.00
2023-04-20T23:46:34.499Z,100.00
2023-04-20T23:49:01.765Z,100.00
2023-04-20T23:51:32.307Z,100.00
2023-04-20T23:53:59.162Z,100.00
2023-04-20T23:56:28.414Z,100.00
2023-04-20T23:58:55.235Z,100.00
